Time;durP1;ratioP1;P1;durP2;ratioP2;P2;SDS_P1;SDS_P2;PMS_P1;PMS_P2;Temp;Humidity;BMP_temperature;BMP_pressure;BME280_temperature;BME280_humidity;BME280_pressure;Samples;Min_cycle;Max_cycle;Signal;HPM_P1;HPM_P2
2022/09/24 00:00:50;;;;;;;62.58;34.83;;;;;;;13.94;97.85;101259.41;6233123;23;20016;-81
2022/09/24 00:03:18;;;;;;;40.88;26.73;;;;;;;13.93;94.24;101255.78;6236153;22;20083;-82
2022/09/24 00:05:44;;;;;;;40.78;26.20;;;;;;;13.98;91.92;101255.44;6237426;22;20023;-82
2022/09/24 00:08:10;;;;;;;42.35;26.02;;;;;;;14.03;91.95;101255.03;6236224;23;20012;-82
2022/09/24 00:10:38;;;;;;;39.22;25.75;;;;;;;14.04;91.50;101247.44;6236442;23;20380;-81
2022/09/24 00:13:05;;;;;;;47.47;28.83;;;;;;;13.98;92.36;101240.56;6233956;23;20016;-81
2022/09/24 00:15:35;;;;;;;48.30;30.95;;;;;;;14.02;94.96;101247.81;6235343;23;20012;-82
2022/09/24 00:18:00;;;;;;;39.75;25.08;;;;;;;13.96;91.30;101246.56;6236324;23;20348;-81
2022/09/24 00:20:29;;;;;;;44.00;25.98;;;;;;;14.08;90.30;101247.44;6235621;23;20016;-81
2022/09/24 00:22:54;;;;;;;53.42;32.28;;;;;;;13.94;95.95;101246.16;6229457;23;20011;-81
2022/09/24 00:28:04;;;;;;;43.72;26.42;;;;;;;13.98;94.24;101235.72;6237190;23;20027;-82
2022/09/24 00:30:29;;;;;;;42.45;25.42;;;;;;;13.80;93.35;101235.59;6240255;22;20442;-82
2022/09/24 00:32:54;;;;;;;46.10;28.90;;;;;;;13.87;94.34;101239.66;6236225;23;20012;-82
2022/09/24 00:35:20;;;;;;;49.85;28.77;;;;;;;13.75;96.02;101238.78;6239942;23;20369;-81
2022/09/24 00:37:45;;;;;;;57.40;34.47;;;;;;;13.69;99.84;101231.09;6239654;23;20011;-81
2022/09/24 00:40:12;;;;;;;60.40;34.90;;;;;;;13.71;100.00;101232.31;6238530;23;20016;-82
2022/09/24 00:42:38;;;;;;;48.92;27.33;;;;;;;13.76;96.34;101231.94;6242017;22;20032;-81
2022/09/24 00:45:04;;;;;;;65.72;34.33;;;;;;;13.77;99.91;101229.97;6240177;22;20003;-82
2022/09/24 00:47:34;;;;;;;46.55;29.23;;;;;;;13.69;99.63;101228.31;6240963;22;20030;-82
2022/09/24 00:50:20;;;;;;;47.58;27.50;;;;;;;13.76;96.74;101228.34;6238635;23;20015;-82
2022/09/24 00:53:00;;;;;;;49.65;27.33;;;;;;;13.86;96.10;101221.97;6238258;23;20016;-81
2022/09/24 00:55:26;;;;;;;56.67;32.03;;;;;;;13.85;96.64;101214.75;6242069;22;20074;-81
2022/09/24 00:57:56;;;;;;;50.15;29.48;;;;;;;13.78;98.36;101209.06;6241033;23;20008;-82
2022/09/24 01:00:22;;;;;;;48.08;26.88;;;;;;;13.73;95.58;101223.50;6217772;23;20551;-81
2022/09/24 01:02:52;;;;;;;50.65;29.48;;;;;;;13.74;97.21;101214.66;6213320;23;20012;-82
2022/09/24 01:05:18;;;;;;;47.80;28.20;;;;;;;13.76;96.98;101222.72;6243580;23;20008;-82
2022/09/24 01:07:47;;;;;;;52.90;28.92;;;;;;;13.70;97.06;101210.22;6241820;23;20023;-81
2022/09/24 01:10:46;;;;;;;51.55;29.48;;;;;;;13.73;95.13;101217.88;6243957;23;20011;-82
2022/09/24 01:13:11;;;;;;;48.53;29.00;;;;;;;13.83;96.49;101206.69;6241979;23;20048;-81
2022/09/24 01:15:52;;;;;;;55.25;29.92;;;;;;;13.85;97.44;101203.50;6244222;23;20007;-81
2022/09/24 01:19:02;;;;;;;59.70;34.08;;;;;;;13.78;98.90;101203.44;6215075;23;20016;-82
2022/09/24 01:22:06;;;;;;;47.63;26.90;;;;;;;13.74;96.54;101197.78;6180995;23;20021;-82
2022/09/24 01:24:43;;;;;;;54.65;30.52;;;;;;;13.86;96.45;101201.47;6118477;23;20125;-82
2022/09/24 01:27:21;;;;;;;61.75;35.67;;;;;;;13.71;96.88;101209.03;6201271;23;20022;-81
2022/09/24 01:30:07;;;;;;;60.45;34.63;;;;;;;13.74;99.14;101202.59;6212998;23;20043;-82
2022/09/24 01:32:36;;;;;;;47.00;26.40;;;;;;;13.75;93.66;101192.97;6209728;23;20441;-82
2022/09/24 01:35:15;;;;;;;54.97;29.38;;;;;;;13.78;96.51;101198.59;6209781;23;20019;-82
2022/09/24 01:37:44;;;;;;;64.82;37.38;;;;;;;13.82;98.81;101195.81;6236861;23;20016;-82
2022/09/24 01:40:11;;;;;;;61.08;32.60;;;;;;;13.70;98.34;101191.31;6240558;23;20020;-82
2022/09/24 01:42:38;;;;;;;53.28;31.35;;;;;;;13.68;99.89;101192.91;6239510;23;20023;-82
2022/09/24 01:45:05;;;;;;;58.00;32.95;;;;;;;13.57;99.95;101196.44;6241685;23;20007;-82
2022/09/24 01:47:38;;;;;;;67.00;37.90;;;;;;;13.65;99.60;101180.44;6236983;23;20004;-82
2022/09/24 01:50:08;;;;;;;43.65;27.17;;;;;;;13.70;94.27;101184.88;6210431;23;20020;-82
2022/09/24 01:52:47;;;;;;;51.70;29.23;;;;;;;13.81;95.72;101185.78;6211911;23;20428;-82
2022/09/24 01:55:17;;;;;;;51.75;31.77;;;;;;;13.88;92.94;101191.44;6210369;22;20012;-81
2022/09/24 01:57:48;;;;;;;66.32;38.03;;;;;;;13.86;97.08;101181.78;6207175;23;20012;-82
2022/09/24 02:00:20;;;;;;;53.05;30.40;;;;;;;13.67;96.79;101177.25;6207833;23;20027;-82
2022/09/24 02:02:57;;;;;;;45.70;27.15;;;;;;;13.82;93.33;101173.31;6232601;23;20008;-82
2022/09/24 02:05:35;;;;;;;54.25;31.48;;;;;;;13.86;94.47;101176.94;6233499;23;20006;-82
2022/09/24 02:08:08;;;;;;;44.88;26.13;;;;;;;13.90;90.26;101172.16;6206606;23;20024;-82
2022/09/24 02:10:41;;;;;;;46.00;27.45;;;;;;;13.89;92.10;101175.34;6235582;23;20360;-82
2022/09/24 02:13:12;;;;;;;49.53;27.73;;;;;;;13.89;91.81;101176.16;6232862;23;20012;-81
2022/09/24 02:15:41;;;;;;;52.28;30.70;;;;;;;13.84;95.34;101168.09;6210202;23;20015;-81
2022/09/24 02:18:10;;;;;;;47.85;27.58;;;;;;;13.76;94.84;101172.06;6238465;23;20019;-82
2022/09/24 02:20:38;;;;;;;61.75;35.53;;;;;;;13.86;98.46;101165.69;6240050;23;20462;-82
2022/09/24 02:23:06;;;;;;;62.10;33.58;;;;;;;13.79;96.00;101154.41;6237557;23;20383;-82
2022/09/24 02:25:41;;;;;;;71.47;40.45;;;;;;;13.73;100.00;101156.00;6239677;23;20421;-82
2022/09/24 02:28:07;;;;;;;72.88;40.20;;;;;;;13.70;100.00;101145.50;6235272;23;20039;-81
2022/09/24 02:30:39;;;;;;;54.80;30.52;;;;;;;13.76;95.31;101155.19;6238818;23;20012;-82
2022/09/24 02:34:19;;;;;;;52.38;28.30;;;;;;;13.82;92.74;101148.00;6208110;23;20015;-81
2022/09/24 02:35:54;;;;;;;60.17;32.70;;;;;;;13.81;97.75;101150.00;6236107;23;20087;-82
2022/09/24 02:38:20;;;;;;;47.38;27.73;;;;;;;13.69;96.51;101146.72;6236625;23;20042;-81
2022/09/24 02:40:46;;;;;;;59.50;32.75;;;;;;;13.74;96.95;101138.69;6207903;23;20442;-81
2022/09/24 02:43:12;;;;;;;68.80;37.30;;;;;;;13.68;98.90;101136.66;6210380;23;20016;-81
2022/09/24 02:45:37;;;;;;;53.05;29.83;;;;;;;13.77;93.95;101146.38;6209793;23;20063;-81
2022/09/24 02:48:03;;;;;;;45.97;26.85;;;;;;;13.77;93.20;101145.56;6209499;23;20024;-82
2022/09/24 02:50:28;;;;;;;69.82;39.85;;;;;;;13.84;99.23;101148.41;6239898;23;20379;-81
2022/09/24 02:52:53;;;;;;;50.97;28.13;;;;;;;13.78;94.60;101136.72;6240656;23;20022;-82
2022/09/24 02:55:19;;;;;;;48.70;29.30;;;;;;;13.71;96.72;101138.69;6209673;23;20011;-81
2022/09/24 02:57:45;;;;;;;54.47;29.50;;;;;;;13.75;93.90;101142.34;6231887;23;20047;-81
2022/09/24 03:00:11;;;;;;;48.53;26.95;;;;;;;13.81;91.83;101137.94;6210900;23;20051;-81
2022/09/24 03:02:36;;;;;;;56.70;29.70;;;;;;;13.77;97.04;101134.31;6239328;23;20020;-81
2022/09/24 03:05:01;;;;;;;72.57;39.28;;;;;;;13.64;100.00;101142.28;6240982;23;20467;-81
2022/09/24 03:07:27;;;;;;;58.88;33.45;;;;;;;13.66;95.98;101139.06;6238903;23;20012;-81
2022/09/24 03:09:52;;;;;;;73.20;39.83;;;;;;;13.77;100.00;101142.75;6239649;23;20083;-81
2022/09/24 03:12:17;;;;;;;67.68;37.03;;;;;;;13.67;99.64;101146.31;6209503;23;20000;-81
2022/09/24 03:14:43;;;;;;;66.40;35.08;;;;;;;13.66;99.71;101139.88;6213418;23;20015;-81
2022/09/24 03:17:08;;;;;;;67.47;37.10;;;;;;;13.64;99.78;101136.66;6239889;23;20397;-82
2022/09/24 03:19:33;;;;;;;52.28;30.13;;;;;;;13.66;96.06;101141.88;6241401;23;20016;-81
2022/09/24 03:21:59;;;;;;;56.10;34.80;;;;;;;13.78;97.85;101141.53;6215358;23;20168;-81
2022/09/24 03:24:24;;;;;;;59.60;33.75;;;;;;;13.65;99.99;101127.00;6242948;23;20078;-81
2022/09/24 03:26:50;;;;;;;69.90;38.13;;;;;;;13.66;100.00;101137.06;6240481;23;20082;-82
2022/09/24 03:29:16;;;;;;;68.15;37.55;;;;;;;13.63;100.00;101135.81;6236624;23;20027;-81
2022/09/24 03:31:41;;;;;;;51.67;30.80;;;;;;;13.59;96.79;101140.63;6209192;23;20408;-81
2022/09/24 03:34:06;;;;;;;63.75;34.90;;;;;;;13.55;100.00;101139.78;6237717;23;20038;-81
2022/09/24 03:36:32;;;;;;;53.42;29.70;;;;;;;13.50;100.00;101137.34;6236842;23;20384;-82
2022/09/24 03:38:57;;;;;;;57.40;31.25;;;;;;;13.62;100.00;101139.84;6208519;23;20042;-81
2022/09/24 03:41:26;;;;;;;51.53;28.08;;;;;;;13.64;97.17;101139.47;6237889;23;20011;-82
2022/09/24 03:43:51;;;;;;;47.10;27.85;;;;;;;13.59;97.67;101140.63;6236701;23;20145;-82
2022/09/24 03:46:18;;;;;;;49.38;27.92;;;;;;;13.69;98.07;101138.28;6234018;23;20103;-81
2022/09/24 03:48:45;;;;;;;50.63;27.52;;;;;;;13.64;99.41;101133.84;6207111;23;20008;-81
2022/09/24 03:51:17;;;;;;;54.50;31.70;;;;;;;13.69;96.68;101139.09;6212259;23;20008;-81
2022/09/24 03:53:43;;;;;;;47.30;27.88;;;;;;;13.67;97.10;101140.69;6211025;23;20424;-81
2022/09/24 03:56:10;;;;;;;48.97;27.70;;;;;;;13.69;97.63;101143.91;6216268;23;20020;-81
2022/09/24 03:58:37;;;;;;;47.05;27.38;;;;;;;13.75;95.24;101142.34;6234496;23;20079;-82
2022/09/24 04:01:08;;;;;;;45.67;25.80;;;;;;;13.75;95.21;101133.91;6233613;23;20022;-81
2022/09/24 04:03:35;;;;;;;52.78;29.00;;;;;;;13.69;99.57;101138.28;6234794;22;20016;-82
2022/09/24 04:06:00;;;;;;;59.70;32.30;;;;;;;13.69;100.00;101127.03;6234706;22;20038;-81
2022/09/24 04:08:26;;;;;;;57.72;32.92;;;;;;;13.71;100.00;101133.06;6233235;23;20016;-81
2022/09/24 04:10:51;;;;;;;61.63;32.80;;;;;;;13.57;100.00;101131.75;6233603;23;20077;-81
2022/09/24 04:13:18;;;;;;;53.28;26.92;;;;;;;13.66;98.51;101127.81;6234424;22;20292;-81
2022/09/24 04:15:43;;;;;;;45.30;26.15;;;;;;;13.66;98.83;101130.59;6234884;22;20008;-80
2022/09/24 04:18:09;;;;;;;52.15;27.10;;;;;;;13.61;100.00;101121.34;6234554;23;20348;-81
2022/09/24 04:20:36;;;;;;;46.33;25.38;;;;;;;13.61;97.18;101126.16;6237828;23;20395;-81
2022/09/24 04:23:02;;;;;;;42.78;25.13;;;;;;;13.75;95.28;101119.84;6240452;23;20004;-81
2022/09/24 04:25:32;;;;;;;47.83;26.83;;;;;;;13.65;100.00;101129.81;6240193;23;20091;-81
2022/09/24 04:28:01;;;;;;;44.97;25.17;;;;;;;13.66;100.00;101130.59;6240478;22;20012;-81
2022/09/24 04:30:27;;;;;;;40.03;24.05;;;;;;;13.68;98.67;101119.78;6240546;23;20432;-81
2022/09/24 04:32:53;;;;;;;40.25;23.00;;;;;;;13.58;100.00;101116.53;6234375;22;20475;-82
2022/09/24 04:35:20;;;;;;;44.40;25.92;;;;;;;13.63;100.00;101113.31;6236157;22;20000;-81
2022/09/24 04:37:47;;;;;;;38.58;23.52;;;;;;;13.55;98.49;101120.09;6234826;22;20490;-81
2022/09/24 04:40:14;;;;;;;37.13;22.80;;;;;;;13.73;95.73;101125.84;6236379;23;20016;-81
2022/09/24 04:42:40;;;;;;;40.67;22.48;;;;;;;13.75;96.57;101126.25;6237203;23;20083;-81
2022/09/24 04:45:08;;;;;;;47.47;26.10;;;;;;;13.62;100.00;101128.59;6239520;23;20057;-81
2022/09/24 04:47:34;;;;;;;50.60;27.30;;;;;;;13.55;100.00;101122.91;6238361;22;20419;-81
2022/09/24 04:50:01;;;;;;;37.42;21.85;;;;;;;13.58;99.47;101121.34;6239423;22;20556;-81
2022/09/24 04:52:32;;;;;;;32.47;18.85;;;;;;;13.62;96.94;101122.97;6235615;22;20023;-81
2022/09/24 04:55:01;;;;;;;37.42;21.73;;;;;;;13.47;100.00;101115.66;6238773;23;20012;-81
2022/09/24 04:57:27;;;;;;;43.58;24.50;;;;;;;13.38;100.00;101121.59;6236576;22;20016;-80
2022/09/24 04:59:53;;;;;;;34.60;20.85;;;;;;;13.53;97.56;101125.31;6235093;23;20015;-81
2022/09/24 05:02:18;;;;;;;40.65;22.92;;;;;;;13.60;99.95;101124.56;6209407;23;20004;-80
2022/09/24 05:04:44;;;;;;;38.17;23.15;;;;;;;13.61;99.23;101124.16;6234884;23;20079;-81
2022/09/24 05:07:10;;;;;;;39.53;21.95;;;;;;;13.62;99.81;101125.00;6235382;23;20436;-81
2022/09/24 05:09:35;;;;;;;40.75;23.27;;;;;;;13.50;100.00;101126.09;6233778;23;20016;-81
2022/09/24 05:12:02;;;;;;;39.72;21.63;;;;;;;13.45;100.00;101126.50;6236281;23;20019;-81
2022/09/24 05:14:27;;;;;;;34.97;18.73;;;;;;;13.39;100.00;101133.69;6210563;23;20336;-81
2022/09/24 05:16:53;;;;;;;34.13;19.60;;;;;;;13.45;99.86;101137.75;6238989;23;20011;-81
2022/09/24 05:19:19;;;;;;;42.20;22.23;;;;;;;13.57;100.00;101142.22;6211014;23;20489;-80
2022/09/24 05:21:45;;;;;;;37.72;20.23;;;;;;;13.56;97.79;101143.44;6207112;23;20020;-81
2022/09/24 05:24:10;;;;;;;37.25;20.73;;;;;;;13.61;100.00;101138.22;6235573;23;20040;-81
2022/09/24 05:29:20;;;;;;;35.05;20.30;;;;;;;13.38;100.00;101129.25;6236317;23;20376;-81
2022/09/24 05:31:45;;;;;;;38.15;22.40;;;;;;;13.50;100.00;101131.72;6207416;23;20016;-81
2022/09/24 05:34:10;;;;;;;45.03;25.08;;;;;;;13.36;100.00;101128.81;6210695;23;20004;-82
2022/09/24 05:36:36;;;;;;;43.03;22.08;;;;;;;13.43;100.00;101131.69;6236569;23;20019;-80
2022/09/24 05:39:02;;;;;;;43.97;23.63;;;;;;;13.39;100.00;101133.69;6237204;23;20012;-81
2022/09/24 05:41:27;;;;;;;31.63;17.33;;;;;;;13.50;98.18;101139.38;6235798;23;20502;-81
2022/09/24 05:43:54;;;;;;;41.47;21.90;;;;;;;13.40;100.00;101138.88;6210010;23;20004;-81
2022/09/24 05:46:19;;;;;;;35.25;19.23;;;;;;;13.41;100.00;101136.91;6208746;23;20452;-81
2022/09/24 05:48:44;;;;;;;44.22;24.85;;;;;;;13.41;100.00;101140.50;6235899;23;20354;-81
2022/09/24 05:51:10;;;;;;;37.38;19.02;;;;;;;13.62;98.81;101145.47;6209885;23;20016;-81
2022/09/24 05:53:35;;;;;;;37.83;20.60;;;;;;;13.62;99.58;101144.69;6213605;23;20008;-81
2022/09/24 05:56:00;;;;;;;34.67;18.85;;;;;;;13.62;97.76;101139.84;6242091;22;20368;-82
2022/09/24 05:58:26;;;;;;;34.95;20.50;;;;;;;13.57;100.00;101143.00;6241297;23;20059;-81
2022/09/24 06:00:51;;;;;;;35.58;19.23;;;;;;;13.59;99.80;101143.44;6215509;23;20020;-81
2022/09/24 06:03:18;;;;;;;32.65;19.67;;;;;;;13.56;99.10;101152.66;6239194;23;20031;-81
2022/09/24 06:05:47;;;;;;;33.42;19.75;;;;;;;13.71;96.69;101158.38;6212011;23;20482;-81
2022/09/24 06:08:14;;;;;;;32.85;19.80;;;;;;;13.63;98.71;101149.88;6214160;23;20039;-81
2022/09/24 06:10:44;;;;;;;31.83;17.92;;;;;;;13.66;96.83;101153.13;6213588;23;20086;-81
2022/09/24 06:13:10;;;;;;;29.73;17.23;;;;;;;13.69;97.11;101155.97;6214860;23;20403;-81
2022/09/24 06:15:41;;;;;;;35.58;19.73;;;;;;;13.58;98.70;101155.91;6212658;23;19993;-82
2022/09/24 06:18:07;;;;;;;36.97;19.65;;;;;;;13.59;100.00;101157.50;6215427;23;20012;-81
2022/09/24 06:20:32;;;;;;;36.25;20.52;;;;;;;13.60;98.39;101161.13;6241347;23;20026;-81
2022/09/24 06:22:57;;;;;;;36.40;19.63;;;;;;;13.58;99.50;101161.53;6241744;23;20430;-81
2022/09/24 06:25:24;;;;;;;47.05;25.52;;;;;;;13.57;100.00;101159.88;6243323;23;20604;-82
2022/09/24 06:28:01;;;;;;;32.05;18.95;;;;;;;13.63;97.61;101163.94;6214414;23;20217;-81
2022/09/24 06:30:34;;;;;;;40.42;22.08;;;;;;;13.63;100.00;101163.94;6210535;23;20624;-82
2022/09/24 06:33:08;;;;;;;47.60;23.45;;;;;;;13.65;98.32;101166.38;6210429;23;20145;-81
2022/09/24 06:35:38;;;;;;;39.08;21.02;;;;;;;13.70;98.20;101177.25;6240810;23;20008;-81
2022/09/24 06:38:04;;;;;;;39.55;21.08;;;;;;;13.70;96.55;101182.06;6213312;23;19996;-81
2022/09/24 06:40:30;;;;;;;38.95;19.77;;;;;;;13.66;98.19;101176.44;6238141;23;20115;-82
2022/09/24 06:42:56;;;;;;;37.75;19.52;;;;;;;13.60;97.96;101181.63;6213422;23;20032;-82
2022/09/24 06:45:24;;;;;;;37.40;19.83;;;;;;;13.69;96.73;101186.09;6235247;23;20013;-82
2022/09/24 06:47:54;;;;;;;34.72;19.23;;;;;;;13.66;96.35;101184.06;6215090;23;20012;-82
2022/09/24 06:50:20;;;;;;;38.15;20.02;;;;;;;13.71;96.24;101192.94;6218254;23;20028;-81
2022/09/24 06:52:46;;;;;;;36.33;20.55;;;;;;;13.70;97.34;101182.06;6216148;23;20040;-81
2022/09/24 06:55:11;;;;;;;35.65;19.13;;;;;;;13.77;95.50;101191.38;6242550;23;20027;-82
2022/09/24 06:57:37;;;;;;;36.28;19.70;;;;;;;13.80;97.53;101198.22;6239406;23;20016;-82
2022/09/24 07:00:03;;;;;;;36.42;19.83;;;;;;;13.73;96.06;101192.56;6215620;23;19996;-82
2022/09/24 07:02:29;;;;;;;50.55;27.67;;;;;;;13.74;100.00;101197.78;6215168;23;20065;-81
2022/09/24 07:04:55;;;;;;;42.55;22.88;;;;;;;13.62;98.22;101196.09;6215111;23;20016;-82
2022/09/24 07:07:31;;;;;;;41.08;20.48;;;;;;;13.69;97.03;101202.97;6212112;23;20854;-82
2022/09/24 07:09:58;;;;;;;37.45;21.45;;;;;;;13.75;99.26;101201.41;6215509;23;20130;-82
2022/09/24 07:12:24;;;;;;;41.88;21.65;;;;;;;13.63;99.28;101203.31;6243237;23;20032;-82
2022/09/24 07:14:50;;;;;;;43.35;22.55;;;;;;;13.74;98.69;101199.78;6242556;23;20384;-82
2022/09/24 07:17:15;;;;;;;37.88;18.67;;;;;;;13.80;95.71;101206.66;6242356;23;20080;-82
2022/09/24 07:19:41;;;;;;;35.47;20.23;;;;;;;13.83;96.07;101211.53;6217437;23;20415;-82
2022/09/24 07:22:07;;;;;;;33.15;19.10;;;;;;;13.71;97.41;101221.06;6242755;23;20008;-82
2022/09/24 07:24:33;;;;;;;43.53;22.35;;;;;;;13.65;100.00;101217.00;6215154;23;20062;-82
2022/09/24 07:26:58;;;;;;;36.25;19.33;;;;;;;13.62;96.44;101210.16;6215734;23;20016;-81
2022/09/24 07:29:24;;;;;;;35.63;19.75;;;;;;;13.69;96.39;101211.41;6242358;23;20421;-82
2022/09/24 07:31:49;;;;;;;37.80;20.02;;;;;;;13.77;94.69;101215.91;6240848;23;20484;-82
2022/09/24 07:34:14;;;;;;;35.35;18.77;;;;;;;13.85;94.91;101217.56;6243086;23;20034;-82
2022/09/24 07:36:40;;;;;;;36.10;19.42;;;;;;;13.83;95.09;101228.41;6241016;23;20424;-82
2022/09/24 07:39:06;;;;;;;37.03;19.67;;;;;;;13.82;96.25;101226.78;6215990;23;20662;-82
2022/09/24 07:41:33;;;;;;;36.83;19.35;;;;;;;13.85;94.20;101228.81;6216345;23;20012;-81
2022/09/24 07:43:58;;;;;;;35.33;18.33;;;;;;;13.81;94.24;101230.78;6237703;23;20050;-82
2022/09/24 07:46:24;;;;;;;31.48;18.30;;;;;;;13.84;95.29;101227.19;6215827;23;20019;-81
2022/09/24 07:48:54;;;;;;;34.63;19.27;;;;;;;13.82;95.10;101226.78;6240638;23;20008;-82
2022/09/24 07:51:20;;;;;;;34.85;19.50;;;;;;;13.84;96.11;101235.63;6241859;23;20016;-81
2022/09/24 07:53:45;;;;;;;33.45;18.98;;;;;;;13.79;96.02;101231.19;6240562;23;20007;-82
2022/09/24 07:56:11;;;;;;;32.20;19.15;;;;;;;13.80;93.99;101240.41;6200866;23;20019;-82
2022/09/24 07:58:36;;;;;;;36.67;19.60;;;;;;;13.85;97.43;101239.25;6210629;23;20107;-80
2022/09/24 08:01:02;;;;;;;31.77;17.70;;;;;;;13.78;96.24;101238.00;6210836;23;20020;-82
2022/09/24 08:03:27;;;;;;;30.85;18.58;;;;;;;13.85;94.21;101248.50;6184407;23;20034;-82
2022/09/24 08:05:57;;;;;;;39.60;20.63;;;;;;;13.87;99.66;101251.75;6184346;23;20016;-81
2022/09/24 08:08:23;;;;;;;33.22;17.02;;;;;;;13.83;96.30;101236.84;6180534;23;20016;-82
2022/09/24 08:10:49;;;;;;;31.38;18.58;;;;;;;13.88;95.14;101241.28;6184598;23;20035;-81
2022/09/24 08:13:14;;;;;;;32.15;17.98;;;;;;;13.91;95.04;101241.28;6210791;23;20013;-82
2022/09/24 08:15:40;;;;;;;29.85;17.45;;;;;;;13.87;95.65;101245.28;6183449;23;20429;-81
2022/09/24 08:18:05;;;;;;;33.05;19.35;;;;;;;13.89;96.29;101243.69;6210613;23;20015;-82
2022/09/24 08:20:32;;;;;;;37.58;20.45;;;;;;;13.92;94.38;101251.38;6210508;23;20011;-82
2022/09/24 08:23:02;;;;;;;31.33;17.75;;;;;;;13.86;97.38;101238.84;6208239;23;20363;-82
2022/09/24 08:25:27;;;;;;;35.40;19.13;;;;;;;13.89;97.02;101246.50;6181822;23;20367;-81
2022/09/24 08:27:53;;;;;;;30.15;17.00;;;;;;;14.01;98.05;101254.63;6176999;23;20468;-77
2022/09/24 08:30:19;;;;;;;34.28;18.17;;;;;;;14.02;97.56;101256.25;6199127;23;20016;-76
2022/09/24 08:32:48;;;;;;;36.47;19.65;;;;;;;14.01;99.94;101251.81;6203722;23;20044;-79
2022/09/24 08:35:17;;;;;;;41.25;19.55;;;;;;;13.95;100.00;101258.22;6203957;23;20047;-78
2022/09/24 08:37:43;;;;;;;45.95;21.63;;;;;;;13.97;100.00;101265.06;6203828;23;20043;-77
2022/09/24 08:40:19;;;;;;;40.70;20.58;;;;;;;13.94;100.00;101262.22;6207667;23;20012;-78
2022/09/24 08:42:53;;;;;;;36.80;17.15;;;;;;;13.96;99.06;101260.63;6176625;23;20020;-77
2022/09/24 08:48:12;;;;;;;35.97;19.40;;;;;;;13.94;100.00;101262.22;6205536;23;20114;-77
2022/09/24 08:50:47;;;;;;;33.72;18.27;;;;;;;14.03;99.43;101274.75;6206632;23;20013;-77
2022/09/24 08:53:35;;;;;;;31.48;17.02;;;;;;;14.05;98.85;101267.94;6209112;23;20353;-77
2022/09/24 08:56:04;;;;;;;35.75;16.98;;;;;;;14.04;100.00;101267.13;6203473;23;20352;-77
2022/09/24 08:58:35;;;;;;;32.83;16.98;;;;;;;13.98;99.60;101266.69;6234635;23;20039;-77
2022/09/24 09:01:15;;;;;;;31.58;16.45;;;;;;;14.05;98.48;101274.38;6234983;23;20418;-77
2022/09/24 09:03:48;;;;;;;34.20;15.75;;;;;;;14.09;99.07;101277.22;6235158;23;20016;-77
2022/09/24 09:06:16;;;;;;;36.30;20.13;;;;;;;13.91;100.00;101280.69;6212712;23;20008;-77
2022/09/24 09:08:54;;;;;;;34.67;17.85;;;;;;;14.02;100.00;101281.59;6241509;23;20444;-78
2022/09/24 09:11:26;;;;;;;39.90;20.83;;;;;;;13.93;100.00;101283.91;6237572;23;20444;-76
2022/09/24 09:14:06;;;;;;;35.63;19.27;;;;;;;13.89;100.00;101277.47;6239206;23;20341;-77
2022/09/24 09:16:59;;;;;;;30.80;16.08;;;;;;;13.99;100.00;101282.34;6237681;23;20477;-78
2022/09/24 09:19:32;;;;;;;31.33;17.02;;;;;;;13.99;100.00;101279.53;6208725;23;20416;-77
2022/09/24 09:22:04;;;;;;;27.58;14.85;;;;;;;14.08;100.00;101282.00;6215069;23;20456;-77
2022/09/24 09:24:49;;;;;;;27.60;15.40;;;;;;;14.11;100.00;101288.88;6238884;23;20485;-77
2022/09/24 09:27:16;;;;;;;29.05;15.07;;;;;;;14.14;100.00;101288.88;6210150;23;20015;-77
2022/09/24 09:29:55;;;;;;;37.40;20.25;;;;;;;14.05;100.00;101290.44;6240606;23;20039;-77
2022/09/24 09:32:27;;;;;;;37.38;19.95;;;;;;;14.08;100.00;101295.28;6210618;23;20436;-77
2022/09/24 09:35:14;;;;;;;37.70;19.63;;;;;;;14.17;100.00;101299.38;6238526;23;20035;-77
2022/09/24 09:38:02;;;;;;;13.07;8.15;;;;;;;14.57;100.00;101299.63;6212104;23;20057;-78
2022/09/24 09:40:33;;;;;;;35.78;18.65;;;;;;;14.68;100.00;101296.84;6239815;23;20046;-78
2022/09/24 09:43:01;;;;;;;37.60;18.73;;;;;;;14.43;100.00;101295.50;6237796;23;20012;-77
2022/09/24 09:46:00;;;;;;;32.40;17.20;;;;;;;14.87;100.00;101307.00;6238206;23;20008;-78
2022/09/24 09:48:36;;;;;;;40.22;18.20;;;;;;;14.50;100.00;101296.72;6240133;23;20008;-77
2022/09/24 09:51:04;;;;;;;31.50;16.25;;;;;;;14.46;100.00;101296.72;6210082;23;20008;-79
2022/09/24 09:53:31;;;;;;;31.42;17.95;;;;;;;14.48;100.00;101308.38;6211903;23;20090;-77
2022/09/24 09:56:01;;;;;;;36.15;17.30;;;;;;;14.29;100.00;101306.66;6218150;23;20370;-77
2022/09/24 09:58:30;;;;;;;32.30;15.20;;;;;;;14.14;100.00;101304.97;6238254;22;20459;-77
2022/09/24 10:01:13;;;;;;;36.25;16.70;;;;;;;14.22;100.00;101301.00;6240934;23;20424;-77
2022/09/24 10:03:50;;;;;;;36.10;18.05;;;;;;;14.17;100.00;101301.41;6236604;22;20019;-77
2022/09/24 10:06:25;;;;;;;35.70;16.20;;;;;;;14.22;100.00;101301.81;6240088;22;20368;-77
2022/09/24 10:08:50;;;;;;;34.95;17.45;;;;;;;14.29;100.00;101301.03;6233486;23;20012;-77
2022/09/24 10:11:16;;;;;;;34.92;16.73;;;;;;;14.30;100.00;101307.50;6238401;23;20322;-78
2022/09/24 10:13:42;;;;;;;32.42;16.55;;;;;;;14.30;100.00;101305.47;6237589;23;20012;-77
2022/09/24 10:16:14;;;;;;;33.05;16.30;;;;;;;14.36;100.00;101309.53;6240961;23;20788;-78
2022/09/24 10:18:48;;;;;;;29.58;14.88;;;;;;;14.40;100.00;101301.94;6240022;23;20048;-77
2022/09/24 10:21:35;;;;;;;31.23;15.77;;;;;;;14.27;100.00;101303.44;6241636;22;20114;-78
2022/09/24 10:24:03;;;;;;;31.83;13.20;;;;;;;14.33;100.00;101290.59;6239231;22;20325;-78
2022/09/24 10:26:37;;;;;;;29.35;14.10;;;;;;;14.31;100.00;101304.28;6236149;23;20349;-77
2022/09/24 10:31:48;;;;;;;31.70;14.43;;;;;;;14.40;100.00;101296.28;6235906;23;20078;-77
2022/09/24 10:34:27;;;;;;;34.67;14.70;;;;;;;14.55;100.00;101304.81;6238676;22;20018;-77
2022/09/24 10:37:02;;;;;;;29.73;14.27;;;;;;;14.53;100.00;101304.41;6239906;22;20410;-77
2022/09/24 10:39:32;;;;;;;25.10;11.30;;;;;;;14.42;100.00;101299.53;6240419;22;20061;-77
2022/09/24 10:41:58;;;;;;;22.00;9.40;;;;;;;14.42;100.00;101305.16;6238939;22;20010;-77
2022/09/24 10:44:32;;;;;;;15.32;6.55;;;;;;;14.26;100.00;101306.66;6238378;23;20114;-77
2022/09/24 10:47:16;;;;;;;9.85;4.22;;;;;;;14.16;100.00;101316.66;6239762;22;20083;-77
2022/09/24 10:49:42;;;;;;;8.98;3.38;;;;;;;14.20;100.00;101314.66;6240967;22;20019;-77
2022/09/24 10:52:41;;;;;;;9.30;5.32;;;;;;;14.18;100.00;101311.44;6240727;23;20000;-77
2022/09/24 10:55:07;;;;;;;13.65;3.30;;;;;;;14.15;100.00;101312.25;6242148;22;20451;-77
2022/09/24 10:57:48;;;;;;;10.30;3.28;;;;;;;14.26;100.00;101318.72;6240708;23;20004;-77
2022/09/24 11:00:21;;;;;;;13.23;4.45;;;;;;;14.16;100.00;101309.00;6212997;23;20187;-77
2022/09/24 11:03:07;;;;;;;16.67;3.90;;;;;;;14.20;100.00;101321.09;6238264;23;20054;-78
2022/09/24 11:06:17;;;;;;;14.32;3.20;;;;;;;14.22;100.00;101313.06;6238962;23;20012;-77
2022/09/24 11:09:07;;;;;;;8.07;3.08;;;;;;;14.14;100.00;101316.22;6198610;23;20012;-78
2022/09/24 11:11:51;;;;;;;7.45;3.05;;;;;;;14.26;100.00;101315.91;6214049;23;20036;-77
2022/09/24 11:14:35;;;;;;;21.50;4.45;;;;;;;14.20;100.00;101314.66;6241994;23;20035;-78
2022/09/24 11:17:25;;;;;;;7.43;2.53;;;;;;;14.24;100.00;101321.13;6242290;23;20325;-78
2022/09/24 11:20:24;;;;;;;15.75;3.63;;;;;;;14.41;100.00;101326.06;6242873;23;20008;-78
2022/09/24 11:23:15;;;;;;;6.72;2.70;;;;;;;14.37;100.00;101319.59;6242120;23;20008;-78
2022/09/24 11:25:56;;;;;;;13.63;4.13;;;;;;;14.36;100.00;101320.00;6215525;23;20027;-78
2022/09/24 11:28:43;;;;;;;8.88;2.75;;;;;;;14.42;100.00;101313.59;6241765;23;20449;-77
2022/09/24 11:31:47;;;;;;;15.70;3.17;;;;;;;14.44;100.00;101316.84;6215427;23;20000;-78